createdAt,value
2022-10-13T15:45:09.980Z,18.50
2022-10-13T15:47:36.980Z,19.70
2022-10-13T15:50:05.630Z,19.03
2022-10-13T15:52:35.171Z,77.50
2022-10-13T15:55:03.200Z,53.37
2022-10-13T15:57:31.788Z,41.20
2022-10-13T16:00:01.098Z,36.10
2022-10-13T16:02:28.984Z,37.37
2022-10-13T16:04:58.228Z,27.77
2022-10-13T16:07:26.149Z,22.00
2022-10-13T16:09:54.062Z,20.57
2022-10-13T16:12:24.242Z,18.43
2022-10-13T16:14:52.134Z,16.93
2022-10-13T16:17:21.561Z,17.10
2022-10-13T16:19:49.452Z,18.17
2022-10-13T16:22:17.594Z,19.00
2022-10-13T16:24:45.788Z,18.70
2022-10-13T16:27:13.724Z,18.33
2022-10-13T16:29:41.656Z,16.87
2022-10-13T16:32:09.621Z,19.43
2022-10-13T16:34:39.142Z,18.70
2022-10-13T16:37:07.013Z,18.40
2022-10-13T16:39:37.530Z,19.90
2022-10-13T16:42:07.893Z,17.50
2022-10-13T16:44:35.821Z,18.37
2022-10-13T16:47:06.333Z,19.50
2022-10-13T16:49:35.017Z,18.80
2022-10-13T16:52:04.289Z,20.67
2022-10-13T16:54:32.879Z,21.23
2022-10-13T16:57:00.805Z,21.83
2022-10-13T16:59:29.019Z,20.43
2022-10-13T17:01:57.837Z,22.13
2022-10-13T17:04:25.798Z,22.80
2022-10-13T17:06:53.716Z,22.80
2022-10-13T17:09:23.203Z,21.37
2022-10-13T17:11:51.097Z,20.80
2022-10-13T17:14:18.969Z,19.70
2022-10-13T17:16:46.929Z,20.43
2022-10-13T17:19:14.817Z,19.30
2022-10-13T17:21:42.704Z,20.43
2022-10-13T17:24:10.946Z,19.67
2022-10-13T17:26:40.223Z,19.33
2022-10-13T17:29:08.122Z,18.47
2022-10-13T17:31:36.077Z,20.57
2022-10-13T17:34:03.970Z,18.90
2022-10-13T17:36:34.197Z,20.57
2022-10-13T17:39:05.238Z,22.17
2022-10-13T17:41:33.529Z,22.00
2022-10-13T17:44:02.780Z,20.03
2022-10-13T17:46:37.465Z,22.53
2022-10-13T17:49:06.733Z,21.73
2022-10-13T17:51:34.651Z,24.67
2022-10-13T17:54:02.607Z,23.20
2022-10-13T17:56:30.872Z,22.93
2022-10-13T17:58:59.826Z,21.63
2022-10-13T18:01:32.561Z,23.40
2022-10-13T18:04:02.019Z,21.83
2022-10-13T18:06:36.810Z,20.90
2022-10-13T18:09:06.915Z,21.90
2022-10-13T18:11:34.947Z,20.77
2022-10-13T18:14:03.244Z,21.90
2022-10-13T18:16:35.993Z,19.87
2022-10-13T18:19:05.913Z,24.70
2022-10-13T18:21:34.059Z,22.97
2022-10-13T18:24:03.014Z,19.60
2022-10-13T18:26:34.902Z,20.53
2022-10-13T18:29:03.391Z,21.77
2022-10-13T18:31:34.314Z,23.33
2022-10-13T18:34:03.716Z,23.27
2022-10-13T18:36:33.806Z,22.60
2022-10-13T18:39:03.481Z,24.37
2022-10-13T18:41:32.503Z,22.90
2022-10-13T18:44:00.412Z,23.57
2022-10-13T18:46:28.288Z,22.53
2022-10-13T18:48:58.327Z,21.40
2022-10-13T18:51:29.125Z,20.50
2022-10-13T18:54:00.294Z,24.57
2022-10-13T18:56:29.697Z,20.93
2022-10-13T18:59:00.201Z,20.33
2022-10-13T19:01:30.005Z,21.40
2022-10-13T19:03:59.609Z,19.73
2022-10-13T19:06:28.715Z,18.73
2022-10-13T19:08:57.316Z,19.67
2022-10-13T19:11:25.747Z,20.90
2022-10-13T19:13:53.746Z,19.90
2022-10-13T19:16:23.395Z,22.33
2022-10-13T19:18:51.888Z,22.20
2022-10-13T19:21:22.249Z,24.10
2022-10-13T19:23:50.650Z,22.73
2022-10-13T19:26:20.320Z,22.53
2022-10-13T19:28:48.881Z,24.10
2022-10-13T19:31:19.024Z,21.80
2022-10-13T19:33:48.533Z,22.50
2022-10-13T19:36:24.047Z,22.60
2022-10-13T19:38:52.392Z,22.00
2022-10-13T19:41:20.417Z,20.70
2022-10-13T19:43:50.327Z,22.97
2022-10-13T19:46:18.665Z,22.03
2022-10-13T19:48:46.659Z,23.47
2022-10-13T19:51:15.159Z,22.80
2022-10-13T19:53:44.761Z,22.90
2022-10-13T19:56:21.294Z,21.87
2022-10-13T19:58:49.327Z,21.67
2022-10-13T20:01:18.966Z,21.87
2022-10-13T20:03:47.090Z,22.77
2022-10-13T20:06:15.627Z,20.90
2022-10-13T20:08:45.481Z,21.20
2022-10-13T20:11:17.309Z,21.03
2022-10-13T20:13:48.831Z,20.30
2022-10-13T20:16:18.643Z,18.67
2022-10-13T20:18:46.749Z,19.47
2022-10-13T20:21:14.877Z,18.50
2022-10-13T20:23:44.132Z,19.40
2022-10-13T20:26:13.984Z,18.40
2022-10-13T20:28:43.225Z,19.27
2022-10-13T20:31:12.708Z,18.67
2022-10-13T20:33:41.184Z,17.73
2022-10-13T20:36:11.491Z,19.60
2022-10-13T20:38:39.904Z,17.50
2022-10-13T20:41:10.312Z,20.70
2022-10-13T20:43:38.182Z,18.90
2022-10-13T20:46:07.445Z,19.20
2022-10-13T20:48:58.150Z,22.70
2022-10-13T20:51:25.826Z,23.87
2022-10-13T20:53:53.781Z,21.30
2022-10-13T20:56:24.783Z,21.17
2022-10-13T20:58:53.261Z,19.50
2022-10-13T21:01:22.591Z,21.33
2022-10-13T21:03:52.829Z,20.57
2022-10-13T21:06:21.087Z,20.37
2022-10-13T21:08:49.118Z,20.77
2022-10-13T21:11:18.450Z,21.03
2022-10-13T21:13:49.331Z,19.40
2022-10-13T21:16:18.993Z,19.30
2022-10-13T21:18:48.090Z,19.30
2022-10-13T21:21:18.500Z,19.53
2022-10-13T21:23:46.527Z,20.67
2022-10-13T21:26:18.857Z,20.30
2022-10-13T21:28:50.971Z,19.10
2022-10-13T21:31:20.440Z,19.50
2022-10-13T21:33:48.464Z,17.20
2022-10-13T21:36:18.458Z,18.47
2022-10-13T21:38:48.799Z,17.60
2022-10-13T21:41:16.729Z,19.53
2022-10-13T21:43:44.707Z,18.77
2022-10-13T21:46:15.468Z,19.63
2022-10-13T21:48:43.911Z,19.50
2022-10-13T21:51:16.309Z,18.60
2022-10-13T21:53:44.601Z,20.50
2022-10-13T21:56:13.070Z,22.33
2022-10-13T21:58:41.141Z,18.93
2022-10-13T22:01:09.390Z,18.97
2022-10-13T22:03:38.773Z,20.20
2022-10-13T22:06:08.133Z,19.00
2022-10-13T22:08:39.020Z,20.73
2022-10-13T22:11:08.206Z,19.00
2022-10-13T22:13:36.936Z,19.77
2022-10-13T22:16:05.413Z,21.10
2022-10-13T22:18:33.351Z,21.00
2022-10-13T22:21:03.273Z,19.47
2022-10-13T22:23:31.610Z,22.50
2022-10-13T22:25:59.607Z,22.30
2022-10-13T22:28:27.601Z,23.10
2022-10-13T22:30:55.534Z,22.27
2022-10-13T22:33:23.418Z,21.30
2022-10-13T22:35:51.329Z,20.27
2022-10-13T22:38:20.569Z,18.90
2022-10-13T22:40:48.726Z,19.93
2022-10-13T22:43:16.609Z,19.27
2022-10-13T22:45:51.029Z,18.97
2022-10-13T22:48:18.987Z,19.13
2022-10-13T22:50:46.961Z,18.53
2022-10-13T22:53:14.961Z,16.90
2022-10-13T22:55:44.248Z,19.37
2022-10-13T22:58:12.262Z,19.07
2022-10-13T23:00:40.579Z,18.50
2022-10-13T23:03:08.539Z,18.60
2022-10-13T23:05:36.484Z,19.60
2022-10-13T23:08:04.501Z,20.50
2022-10-13T23:10:32.393Z,31.77
2022-10-13T23:13:01.637Z,40.17
2022-10-13T23:15:29.589Z,41.20
2022-10-13T23:17:57.470Z,37.80
2022-10-13T23:20:25.359Z,35.50
2022-10-13T23:22:53.274Z,29.60
2022-10-13T23:25:21.149Z,26.57
2022-10-13T23:27:49.054Z,28.10
2022-10-13T23:30:18.614Z,23.40
2022-10-13T23:32:46.549Z,22.40
2022-10-13T23:35:14.839Z,21.03
2022-10-13T23:37:42.730Z,20.30
2022-10-13T23:40:12.099Z,22.00
2022-10-13T23:42:40.010Z,20.10
2022-10-13T23:45:08.694Z,21.73
2022-10-13T23:47:37.995Z,21.30
2022-10-13T23:50:06.715Z,20.50
2022-10-13T23:52:34.688Z,21.20
2022-10-13T23:55:02.657Z,19.93
2022-10-13T23:57:30.560Z,18.97
2022-10-13T23:59:58.435Z,20.20
